createdAt,value
2023-04-28T00:02:24.850Z,3.34
2023-04-28T00:05:27.865Z,3.35
2023-04-28T00:08:30.887Z,3.32
2023-04-28T00:11:33.594Z,3.24
2023-04-28T00:14:36.396Z,3.31
2023-04-28T00:17:39.121Z,3.33
2023-04-28T00:20:41.915Z,3.27
2023-04-28T00:23:44.571Z,3.17
2023-04-28T00:26:47.540Z,3.11
2023-04-28T00:29:50.229Z,3.11
2023-04-28T00:32:53.588Z,2.99
2023-04-28T00:36:01.321Z,2.87
2023-04-28T00:39:04.324Z,2.83
2023-04-28T00:42:07.114Z,2.77
2023-04-28T00:45:10.038Z,2.75
2023-04-28T00:48:14.326Z,2.83
2023-04-28T00:51:19.640Z,2.84
2023-04-28T00:54:22.315Z,2.90
2023-04-28T00:57:25.131Z,2.86
2023-04-28T01:00:27.841Z,2.84
2023-04-28T01:03:30.686Z,2.69
2023-04-28T01:06:34.362Z,2.73
2023-04-28T01:09:38.053Z,2.73
2023-04-28T01:12:42.101Z,2.69
2023-04-28T01:15:44.750Z,2.67
2023-04-28T01:18:48.712Z,2.68
2023-04-28T01:21:51.804Z,2.61
2023-04-28T01:24:56.661Z,2.63
2023-04-28T01:27:59.822Z,2.56
2023-04-28T01:31:03.994Z,2.45
2023-04-28T01:34:06.916Z,2.45
2023-04-28T01:37:09.745Z,2.35
2023-04-28T01:40:13.632Z,2.31
2023-04-28T01:43:16.516Z,2.29
2023-04-28T01:46:19.206Z,2.23
2023-04-28T01:49:22.121Z,2.26
2023-04-28T01:52:25.123Z,2.18
2023-04-28T01:55:28.233Z,2.10
2023-04-28T01:58:32.036Z,2.11
2023-04-28T02:01:35.070Z,2.17
2023-04-28T02:04:41.349Z,2.15
2023-04-28T02:07:44.593Z,2.11
2023-04-28T02:10:47.255Z,2.14
2023-04-28T02:13:51.106Z,2.10
2023-04-28T02:16:53.909Z,2.06
2023-04-28T02:19:57.150Z,2.09
2023-04-28T02:22:59.747Z,2.09
2023-04-28T02:26:04.171Z,2.09
2023-04-28T02:29:06.932Z,2.04
2023-04-28T02:32:09.716Z,2.05
2023-04-28T02:35:12.726Z,1.99
2023-04-28T02:38:15.462Z,1.97
2023-04-28T02:41:19.193Z,1.92
2023-04-28T02:44:22.044Z,1.88
2023-04-28T02:47:27.246Z,1.92
2023-04-28T02:50:29.921Z,1.94
2023-04-28T02:53:32.594Z,1.93
2023-04-28T02:56:36.024Z,1.90
2023-04-28T02:59:40.202Z,1.76
2023-04-28T03:02:45.629Z,1.79
2023-04-28T03:05:48.404Z,1.73
2023-04-28T03:08:52.238Z,1.70
2023-04-28T03:11:54.934Z,1.74
2023-04-28T03:15:00.144Z,1.83
2023-04-28T03:18:03.142Z,1.96
2023-04-28T03:21:06.489Z,1.88
2023-04-28T03:24:09.389Z,1.86
2023-04-28T03:27:12.673Z,1.87
2023-04-28T03:30:15.375Z,2.04
2023-04-28T03:33:18.313Z,2.02
2023-04-28T03:36:20.922Z,1.98
2023-04-28T03:39:23.743Z,2.10
2023-04-28T03:42:26.525Z,2.16
2023-04-28T03:45:46.551Z,2.28
2023-04-28T03:48:50.117Z,2.41
2023-04-28T03:51:55.365Z,2.43
2023-04-28T03:54:58.191Z,2.58
2023-04-28T03:58:01.134Z,2.65
2023-04-28T04:01:04.100Z,2.64
2023-04-28T04:04:07.927Z,2.77
2023-04-28T04:07:11.195Z,2.81
2023-04-28T04:10:13.969Z,2.88
2023-04-28T04:13:19.783Z,3.01
2023-04-28T04:16:23.514Z,3.26
2023-04-28T04:19:29.238Z,3.47
2023-04-28T04:22:32.285Z,4.73
2023-04-28T04:25:35.633Z,8.49
2023-04-28T04:28:39.524Z,10.76
2023-04-28T04:31:45.873Z,11.56
2023-04-28T04:34:48.981Z,12.22
2023-04-28T04:37:52.169Z,13.21
2023-04-28T04:40:56.169Z,13.53
2023-04-28T04:43:59.019Z,11.63
2023-04-28T04:47:07.775Z,9.84
2023-04-28T04:50:12.806Z,9.06
2023-04-28T04:53:16.597Z,8.61
2023-04-28T04:56:20.735Z,8.31
2023-04-28T04:59:24.110Z,8.00
2023-04-28T05:02:41.818Z,8.12
2023-04-28T05:05:48.165Z,8.13
2023-04-28T05:09:04.703Z,8.41
2023-04-28T05:12:09.402Z,8.51
2023-04-28T05:15:12.883Z,8.56
2023-04-28T05:18:22.336Z,8.67
2023-04-28T05:21:25.086Z,8.76
2023-04-28T05:24:28.487Z,8.94
2023-04-28T05:27:31.519Z,8.90
2023-04-28T05:30:35.409Z,9.07
2023-04-28T05:33:38.571Z,8.95
2023-04-28T05:36:42.035Z,9.22
2023-04-28T05:39:47.075Z,9.37
2023-04-28T05:42:50.618Z,9.74
2023-04-28T05:45:53.769Z,9.95
2023-04-28T05:48:57.241Z,10.19
2023-04-28T05:52:00.457Z,10.15
2023-04-28T05:55:04.060Z,9.71
2023-04-28T05:58:07.202Z,10.10
2023-04-28T06:01:10.263Z,10.38
2023-04-28T06:04:15.140Z,10.53
2023-04-28T06:07:20.786Z,10.37
2023-04-28T06:10:26.692Z,10.80
2023-04-28T06:13:29.609Z,10.65
2023-04-28T06:16:32.610Z,10.70
2023-04-28T06:19:35.360Z,10.83
2023-04-28T06:22:38.069Z,10.74
2023-04-28T06:25:42.600Z,10.74
2023-04-28T06:28:45.523Z,10.62
2023-04-28T06:31:48.950Z,10.93
2023-04-28T06:34:52.196Z,10.85
2023-04-28T06:37:55.104Z,11.04
2023-04-28T06:40:59.217Z,10.80
2023-04-28T06:44:02.604Z,10.90
2023-04-28T06:47:06.849Z,11.36
2023-04-28T06:50:10.206Z,11.59
2023-04-28T06:53:13.560Z,11.35
2023-04-28T06:56:16.313Z,11.07
2023-04-28T06:59:19.002Z,11.18
2023-04-28T07:02:23.925Z,11.97
2023-04-28T07:05:27.488Z,12.20
2023-04-28T07:08:31.180Z,12.53
2023-04-28T07:11:33.808Z,12.35
2023-04-28T07:14:36.547Z,11.41
2023-04-28T07:17:39.508Z,11.90
2023-04-28T07:20:42.288Z,11.79
2023-04-28T07:23:46.295Z,11.69
2023-04-28T07:26:49.156Z,11.53
2023-04-28T07:29:52.102Z,11.47
2023-04-28T07:32:55.081Z,11.39
2023-04-28T07:35:59.130Z,11.45
2023-04-28T07:39:02.425Z,11.24
2023-04-28T07:42:05.361Z,10.75
2023-04-28T07:45:08.743Z,11.06
2023-04-28T07:48:11.759Z,11.70
2023-04-28T07:51:14.448Z,11.98
2023-04-28T07:54:17.509Z,12.03
2023-04-28T07:57:20.452Z,12.35
2023-04-28T08:00:23.324Z,12.40
2023-04-28T08:03:27.527Z,12.03
2023-04-28T08:06:30.452Z,12.62
2023-04-28T08:09:33.412Z,12.00
2023-04-28T08:12:36.159Z,12.25
2023-04-28T08:15:39.063Z,12.31
2023-04-28T08:18:42.003Z,12.79
2023-04-28T08:21:44.832Z,13.01
2023-04-28T08:24:47.516Z,13.32
2023-04-28T08:27:50.177Z,13.76
2023-04-28T08:30:55.101Z,13.46
2023-04-28T08:33:57.827Z,13.94
2023-04-28T08:37:01.149Z,14.23
2023-04-28T08:40:10.097Z,13.98
2023-04-28T08:43:14.063Z,13.85
2023-04-28T08:46:17.235Z,13.90
2023-04-28T08:49:24.319Z,13.77
2023-04-28T08:52:28.181Z,13.90
2023-04-28T08:55:31.904Z,13.51
2023-04-28T08:58:36.353Z,13.62
2023-04-28T09:01:39.696Z,14.11
2023-04-28T09:04:42.737Z,14.55
2023-04-28T09:07:50.601Z,13.95
2023-04-28T09:11:13.879Z,13.62
2023-04-28T09:14:16.745Z,14.09
2023-04-28T09:17:19.709Z,14.00
2023-04-28T09:20:23.345Z,13.47
2023-04-28T09:23:26.936Z,13.77
2023-04-28T09:26:49.099Z,13.51
2023-04-28T09:29:54.994Z,13.70
2023-04-28T09:33:11.237Z,13.64
2023-04-28T09:36:27.050Z,13.87
2023-04-28T09:39:32.119Z,14.38
2023-04-28T09:42:42.857Z,14.36
2023-04-28T09:45:46.421Z,15.08
2023-04-28T09:48:49.158Z,15.38
2023-04-28T09:51:51.885Z,15.20
2023-04-28T09:54:55.886Z,15.78
2023-04-28T09:58:02.259Z,15.83
2023-04-28T10:01:06.631Z,15.98
2023-04-28T10:04:12.291Z,16.43
2023-04-28T10:07:17.154Z,16.19
2023-04-28T10:10:20.407Z,16.15
2023-04-28T10:13:23.618Z,16.88
2023-04-28T10:16:30.874Z,16.92
2023-04-28T10:19:38.023Z,16.61
2023-04-28T10:23:36.593Z,16.33
2023-04-28T10:27:07.422Z,15.97
2023-04-28T10:30:23.072Z,15.84
2023-04-28T10:33:30.226Z,17.06
2023-04-28T10:36:55.387Z,17.06
2023-04-28T10:40:37.181Z,16.49
2023-04-28T10:43:43.217Z,17.01
2023-04-28T10:47:04.248Z,17.42
2023-04-28T10:50:09.465Z,16.33
2023-04-28T10:53:12.487Z,17.03
2023-04-28T10:56:26.497Z,17.41
2023-04-28T10:59:29.451Z,17.64
2023-04-28T11:02:44.423Z,17.78
2023-04-28T11:06:21.798Z,18.05
2023-04-28T11:09:36.515Z,18.70
2023-04-28T11:13:17.987Z,17.39
2023-04-28T11:16:25.963Z,17.70
2023-04-28T11:19:36.747Z,17.37
2023-04-28T11:22:40.234Z,17.20
2023-04-28T11:25:59.544Z,17.25
2023-04-28T11:29:02.391Z,16.81
2023-04-28T11:32:08.974Z,16.82
2023-04-28T11:35:12.156Z,16.55
2023-04-28T11:38:15.034Z,16.28
2023-04-28T11:41:17.866Z,16.53
2023-04-28T11:44:22.735Z,16.95
2023-04-28T11:47:33.169Z,17.05
2023-04-28T11:50:37.301Z,17.20
2023-04-28T11:53:44.025Z,17.89
2023-04-28T11:56:47.195Z,18.77
2023-04-28T11:59:51.145Z,18.06
2023-04-28T12:02:54.691Z,19.02
2023-04-28T12:05:57.815Z,18.23
2023-04-28T12:09:04.911Z,18.11
2023-04-28T12:12:45.168Z,18.14
2023-04-28T12:15:57.261Z,18.17
2023-04-28T12:19:04.918Z,17.43
2023-04-28T12:22:08.003Z,18.19
2023-04-28T12:25:12.954Z,18.18
2023-04-28T12:28:15.636Z,17.88
2023-04-28T12:31:19.950Z,17.59
2023-04-28T12:34:22.926Z,17.16
2023-04-28T12:37:25.980Z,17.09
2023-04-28T12:40:29.009Z,17.53
2023-04-28T12:43:31.866Z,17.15
2023-04-28T12:46:34.800Z,16.87
2023-04-28T12:49:38.270Z,17.15
2023-04-28T12:52:43.485Z,17.67
2023-04-28T12:55:46.482Z,17.60
2023-04-28T12:58:49.312Z,17.78
2023-04-28T13:01:52.253Z,17.22
2023-04-28T13:04:55.411Z,16.60
2023-04-28T13:07:58.414Z,16.95
2023-04-28T13:11:04.875Z,17.23
2023-04-28T13:14:10.231Z,17.57
2023-04-28T13:17:13.904Z,17.27
2023-04-28T13:20:16.902Z,17.53
2023-04-28T13:23:19.990Z,17.16
2023-04-28T13:26:25.966Z,16.93
2023-04-28T13:29:29.071Z,16.97
2023-04-28T13:32:32.294Z,16.85
2023-04-28T13:35:35.244Z,16.71
2023-04-28T13:38:41.060Z,16.89
2023-04-28T13:41:44.193Z,16.62
2023-04-28T13:44:49.556Z,16.42
2023-04-28T13:47:52.593Z,16.27
2023-04-28T13:50:55.620Z,16.45
2023-04-28T13:53:58.859Z,16.33
2023-04-28T13:57:02.077Z,16.39
2023-04-28T14:00:06.030Z,16.33
2023-04-28T14:03:10.519Z,16.17
2023-04-28T14:06:13.970Z,16.30
2023-04-28T14:09:17.162Z,16.37
2023-04-28T14:12:20.539Z,16.22
2023-04-28T14:15:24.354Z,16.19
2023-04-28T14:18:28.381Z,16.20
2023-04-28T14:21:31.836Z,16.28
2023-04-28T14:24:34.880Z,16.02
2023-04-28T14:27:37.876Z,15.91
2023-04-28T14:30:40.871Z,15.71
2023-04-28T14:33:43.748Z,15.78
2023-04-28T14:36:48.461Z,15.70
2023-04-28T14:39:51.596Z,15.51
2023-04-28T14:42:54.429Z,15.46
2023-04-28T14:45:57.317Z,15.50
2023-04-28T14:49:00.230Z,15.22
2023-04-28T14:52:03.101Z,15.13
2023-04-28T14:55:06.099Z,14.97
2023-04-28T14:58:09.080Z,15.14
2023-04-28T15:01:12.184Z,15.14
2023-04-28T15:04:15.323Z,14.99
2023-04-28T15:07:18.598Z,14.89
2023-04-28T15:10:21.799Z,14.97
2023-04-28T15:13:28.914Z,14.86
2023-04-28T15:16:31.974Z,14.92
2023-04-28T15:19:35.280Z,14.89
2023-04-28T15:22:38.201Z,14.79
2023-04-28T15:25:41.830Z,14.69
2023-04-28T15:28:44.611Z,14.83
2023-04-28T15:31:47.551Z,14.87
2023-04-28T15:34:50.747Z,14.74
2023-04-28T15:37:57.985Z,14.71
2023-04-28T15:41:03.247Z,14.73
2023-04-28T15:44:08.741Z,14.70
2023-04-28T15:47:11.674Z,14.71
2023-04-28T15:50:14.489Z,14.79
2023-04-28T15:53:17.733Z,14.74
2023-04-28T15:56:20.911Z,14.82
2023-04-28T15:59:24.700Z,14.83
2023-04-28T16:02:27.896Z,14.94
2023-04-28T16:05:30.879Z,14.84
2023-04-28T16:08:33.744Z,14.72
2023-04-28T16:11:36.769Z,14.65
2023-04-28T16:14:40.028Z,14.71
2023-04-28T16:17:44.591Z,14.63
2023-04-28T16:20:47.539Z,14.62
2023-04-28T16:23:53.579Z,14.61
2023-04-28T16:26:56.307Z,14.35
2023-04-28T16:30:00.017Z,14.24
2023-04-28T16:33:03.052Z,14.22
2023-04-28T16:36:06.254Z,14.13
2023-04-28T16:39:10.264Z,14.22
2023-04-28T16:42:13.218Z,14.09
2023-04-28T16:45:16.994Z,14.12
2023-04-28T16:48:21.034Z,14.07
2023-04-28T16:51:23.904Z,13.97
2023-04-28T16:54:28.551Z,13.99
2023-04-28T16:57:31.442Z,13.94
2023-04-28T17:00:34.243Z,13.93
2023-04-28T17:03:42.344Z,13.99
2023-04-28T17:06:45.853Z,13.92
2023-04-28T17:09:49.251Z,13.87
2023-04-28T17:12:53.027Z,13.89
2023-04-28T17:15:57.844Z,13.75
2023-04-28T17:19:01.603Z,13.67
2023-04-28T17:22:04.373Z,13.63
2023-04-28T17:25:07.993Z,13.55
2023-04-28T17:28:11.210Z,13.54
2023-04-28T17:31:14.084Z,13.42
2023-04-28T17:34:20.545Z,13.44
2023-04-28T17:37:23.686Z,13.33
2023-04-28T17:40:27.459Z,13.23
2023-04-28T17:43:31.264Z,13.15
2023-04-28T17:46:34.646Z,13.06
2023-04-28T17:49:39.594Z,13.00
2023-04-28T17:52:44.092Z,12.92
2023-04-28T17:55:47.269Z,12.76
2023-04-28T17:58:50.287Z,12.65
2023-04-28T18:01:56.689Z,12.61
2023-04-28T18:04:59.740Z,12.54
2023-04-28T18:08:06.806Z,12.58
2023-04-28T18:11:10.421Z,12.57
2023-04-28T18:14:15.914Z,12.36
2023-04-28T18:17:19.172Z,12.35
2023-04-28T18:20:22.197Z,12.28
2023-04-28T18:23:26.594Z,12.21
2023-04-28T18:26:29.813Z,12.23
2023-04-28T18:29:32.784Z,12.15
2023-04-28T18:32:36.320Z,12.12
2023-04-28T18:35:39.145Z,12.08
2023-04-28T18:38:42.314Z,12.14
2023-04-28T18:41:45.363Z,12.04
2023-04-28T18:44:48.210Z,12.00
2023-04-28T18:47:51.164Z,11.98
2023-04-28T18:50:54.284Z,11.93
2023-04-28T18:53:57.172Z,11.85
2023-04-28T18:57:00.345Z,11.91
2023-04-28T19:00:05.609Z,11.83
2023-04-28T19:03:13.556Z,11.80
2023-04-28T19:06:18.737Z,11.72
2023-04-28T19:09:21.785Z,11.63
2023-04-28T19:12:25.347Z,11.55
2023-04-28T19:15:28.344Z,11.49
2023-04-28T19:18:32.681Z,11.47
2023-04-28T19:21:42.497Z,11.44
2023-04-28T19:24:47.630Z,11.40
2023-04-28T19:27:50.474Z,11.37
2023-04-28T19:30:54.665Z,11.55
2023-04-28T19:33:58.527Z,11.54
2023-04-28T19:37:01.290Z,11.41
2023-04-28T19:40:07.679Z,11.36
2023-04-28T19:43:11.898Z,11.43
2023-04-28T19:46:16.959Z,11.45
2023-04-28T19:49:19.925Z,11.14
2023-04-28T19:52:23.486Z,10.99
2023-04-28T19:55:26.775Z,11.10
2023-04-28T19:58:29.780Z,11.18
2023-04-28T20:01:35.199Z,11.32
2023-04-28T20:04:38.818Z,11.25
2023-04-28T20:07:42.861Z,11.20
2023-04-28T20:10:47.512Z,11.22
2023-04-28T20:13:51.027Z,11.34
2023-04-28T20:16:53.815Z,11.21
2023-04-28T20:19:57.059Z,11.18
2023-04-28T20:22:59.761Z,11.07
2023-04-28T20:26:02.835Z,11.06
2023-04-28T20:29:07.269Z,11.10
2023-04-28T20:32:11.301Z,11.06
2023-04-28T20:35:14.495Z,11.05
2023-04-28T20:38:17.756Z,11.08
2023-04-28T20:41:21.896Z,10.98
2023-04-28T20:44:24.863Z,11.11
2023-04-28T20:47:28.138Z,10.95
2023-04-28T20:50:33.562Z,10.86
2023-04-28T20:53:36.871Z,10.98
2023-04-28T20:56:40.305Z,10.91
2023-04-28T20:59:43.131Z,10.88
2023-04-28T21:02:46.304Z,11.10
2023-04-28T21:05:49.546Z,11.10
2023-04-28T21:08:53.415Z,11.02
2023-04-28T21:11:56.271Z,10.91
2023-04-28T21:15:01.232Z,10.94
2023-04-28T21:18:04.835Z,10.92
2023-04-28T21:21:07.740Z,10.99
2023-04-28T21:24:10.772Z,11.02
2023-04-28T21:27:13.684Z,10.89
2023-04-28T21:30:16.621Z,10.90
2023-04-28T21:33:19.883Z,10.94
2023-04-28T21:36:22.687Z,10.89
2023-04-28T21:39:25.984Z,10.97
2023-04-28T21:42:32.215Z,10.97
2023-04-28T21:45:35.288Z,10.81
2023-04-28T21:48:38.171Z,10.66
2023-04-28T21:51:44.591Z,10.63
2023-04-28T21:54:47.878Z,10.67
2023-04-28T21:57:50.872Z,10.65
2023-04-28T22:00:55.447Z,10.71
2023-04-28T22:03:59.063Z,10.87
2023-04-28T22:07:02.283Z,10.75
2023-04-28T22:10:05.730Z,10.76
2023-04-28T22:13:09.670Z,10.82
2023-04-28T22:16:13.811Z,10.72
2023-04-28T22:19:17.710Z,10.75
2023-04-28T22:22:20.645Z,10.78
2023-04-28T22:25:23.788Z,10.79
2023-04-28T22:28:27.112Z,10.74
2023-04-28T22:31:29.974Z,10.59
2023-04-28T22:34:32.972Z,10.71
2023-04-28T22:37:35.828Z,10.75
2023-04-28T22:40:38.615Z,10.77
2023-04-28T22:43:41.389Z,10.67
2023-04-28T22:46:44.144Z,10.79
2023-04-28T22:49:47.203Z,10.77
2023-04-28T22:52:50.075Z,10.66
2023-04-28T22:55:53.472Z,10.69
2023-04-28T22:58:56.514Z,10.66
2023-04-28T23:01:59.423Z,10.61
2023-04-28T23:05:02.158Z,10.51
2023-04-28T23:08:05.464Z,10.52
2023-04-28T23:11:08.421Z,10.51
2023-04-28T23:14:11.060Z,10.52
2023-04-28T23:17:13.837Z,10.49
2023-04-28T23:20:16.929Z,10.53
2023-04-28T23:23:19.761Z,10.51
2023-04-28T23:26:23.078Z,10.52
2023-04-28T23:29:26.610Z,10.62
2023-04-28T23:32:29.492Z,10.68
2023-04-28T23:35:33.534Z,10.65
2023-04-28T23:38:36.217Z,10.70
2023-04-28T23:41:38.830Z,10.74
2023-04-28T23:44:41.656Z,10.68
2023-04-28T23:47:44.453Z,10.66
2023-04-28T23:50:47.473Z,10.75
2023-04-28T23:53:50.316Z,10.69
2023-04-28T23:56:52.934Z,10.64
2023-04-28T23:59:55.832Z,10.57
